LTAV

Sivrihisar Airport

Sivrihisar, Turkey
TAF LTAV 221340Z 2215/2224 33008KT 9999 SCT040
Issued Valid From Valid To
Jul-22 @ 13:40 UTC
(6 hours ago)
Jul-22 @ 15:00 UTC
(5 hours ago)
Jul-23 @ 00:00 UTC
(in 4 hours)
Jul-22 @ 15:00 to Jul-23 @ 00:00
TAF LTAV 221340Z 2215/2224 33008KT 9999 SCT040
Wind Visibility Clouds
330° at 8 knots 10,000+ meters
  • Scattered at 4,000' AGL
TAF LTAV 221340Z 2215/2224 33008KT 9999 SCT040
Issued Jul-22 @ 13:40 UTC
(6 hours ago)
Valid From Jul-22 @ 15:00 UTC
(5 hours ago)
Valid To Jul-23 @ 00:00 UTC
(in 4 hours)
Jul-22 @ 15:00 - Jul-23 @ 00:00
Wind Visibility
330° at 8 knots 10,000+ meters
Clouds
  • Scattered at 4,000' AGL